createdAt,value
2023-03-17T00:03:37.680Z,8.40
2023-03-17T00:07:48.027Z,8.40
2023-03-17T00:11:56.594Z,8.40
2023-03-17T00:16:07.560Z,8.30
2023-03-17T00:20:37.362Z,8.30
2023-03-17T00:24:45.962Z,8.30
2023-03-17T00:28:55.140Z,8.30
2023-03-17T00:33:03.768Z,8.30
2023-03-17T00:37:13.620Z,8.30
2023-03-17T00:41:22.730Z,8.20
2023-03-17T00:45:31.456Z,8.30
2023-03-17T00:49:40.202Z,8.20
2023-03-17T00:53:49.303Z,8.20
2023-03-17T00:57:58.061Z,8.30
2023-03-17T01:02:07.123Z,8.30
2023-03-17T01:06:17.574Z,8.30
2023-03-17T01:10:28.997Z,8.30
2023-03-17T01:14:38.146Z,8.30
2023-03-17T01:18:46.877Z,8.30
2023-03-17T01:22:56.485Z,8.30
2023-03-17T01:27:05.187Z,8.30
2023-03-17T01:31:13.782Z,8.20
2023-03-17T01:35:24.297Z,8.20
2023-03-17T01:39:33.442Z,8.20
2023-03-17T01:43:42.567Z,8.10
2023-03-17T01:47:51.263Z,8.10
2023-03-17T01:52:06.236Z,8.10
2023-03-17T01:56:15.312Z,8.20
2023-03-17T02:00:26.570Z,8.20
2023-03-17T02:04:38.547Z,8.20
2023-03-17T02:08:47.589Z,8.20
2023-03-17T02:13:03.013Z,8.20
2023-03-17T02:17:11.845Z,8.10
2023-03-17T02:21:50.534Z,8.10
2023-03-17T02:25:59.060Z,8.10
2023-03-17T02:30:11.651Z,8.00
2023-03-17T02:34:21.163Z,8.00
2023-03-17T02:38:29.793Z,7.90
2023-03-17T02:42:39.420Z,7.90
2023-03-17T02:46:48.061Z,7.90
2023-03-17T02:50:56.662Z,7.80
2023-03-17T02:55:24.569Z,7.80
2023-03-17T02:59:33.205Z,7.80
2023-03-17T03:03:41.970Z,7.80
2023-03-17T03:07:51.483Z,7.70
2023-03-17T03:12:00.153Z,7.70
2023-03-17T03:16:09.391Z,7.70
2023-03-17T03:20:18.423Z,7.70
2023-03-17T03:24:27.850Z,7.60
2023-03-17T03:28:36.469Z,7.60
2023-03-17T03:32:45.074Z,7.60
2023-03-17T03:36:53.833Z,7.50
2023-03-17T03:41:02.508Z,7.60
2023-03-17T03:45:11.903Z,7.50
2023-03-17T03:49:39.904Z,7.50
2023-03-17T03:53:51.595Z,7.50
2023-03-17T03:58:00.416Z,7.50
2023-03-17T04:02:09.761Z,7.50
2023-03-17T04:06:18.390Z,7.50
2023-03-17T04:10:27.266Z,7.50
2023-03-17T04:14:36.397Z,7.50
2023-03-17T04:18:45.018Z,7.50
2023-03-17T04:22:53.673Z,7.50
2023-03-17T04:27:05.469Z,7.40
2023-03-17T04:31:13.546Z,7.50
2023-03-17T04:35:25.588Z,7.40
2023-03-17T04:39:34.283Z,7.40
2023-03-17T04:43:43.014Z,7.40
2023-03-17T04:47:51.679Z,7.50
2023-03-17T04:52:00.840Z,7.50
2023-03-17T04:56:09.512Z,7.50
2023-03-17T05:00:18.556Z,7.50
2023-03-17T05:04:31.748Z,7.60
2023-03-17T05:08:37.445Z,7.60
2023-03-17T05:12:46.076Z,7.60
2023-03-17T05:16:54.828Z,7.60
2023-03-17T05:21:03.758Z,7.60
2023-03-17T05:25:12.322Z,7.60
2023-03-17T05:29:20.954Z,7.50
2023-03-17T05:33:33.086Z,7.50
2023-03-17T05:37:41.748Z,7.50
2023-03-17T05:41:51.127Z,7.50
2023-03-17T05:46:00.270Z,7.40
2023-03-17T05:50:09.463Z,7.50
2023-03-17T05:54:17.991Z,7.50
2023-03-17T05:58:26.628Z,7.50
2023-03-17T06:02:35.791Z,7.50
2023-03-17T06:06:44.385Z,7.50
2023-03-17T06:10:53.328Z,7.50
2023-03-17T06:15:01.958Z,7.50
2023-03-17T06:19:10.994Z,7.60
2023-03-17T06:23:19.638Z,7.60
2023-03-17T06:27:28.469Z,7.60
2023-03-17T06:31:39.337Z,7.60
2023-03-17T06:35:48.214Z,7.70
2023-03-17T06:39:57.724Z,7.70
2023-03-17T06:44:07.373Z,7.70
2023-03-17T06:48:16.003Z,7.80
2023-03-17T06:52:24.529Z,7.80
2023-03-17T06:56:33.444Z,7.90
2023-03-17T07:00:42.321Z,7.90
2023-03-17T07:04:52.067Z,7.90
2023-03-17T07:09:02.243Z,8.10
2023-03-17T07:13:11.295Z,8.10
2023-03-17T07:17:20.256Z,8.20
2023-03-17T07:21:28.983Z,8.30
2023-03-17T07:25:37.504Z,8.40
2023-03-17T07:29:46.800Z,8.50
2023-03-17T07:33:57.395Z,8.60
2023-03-17T07:38:06.489Z,8.70
2023-03-17T07:42:17.550Z,8.80
2023-03-17T07:46:26.762Z,8.90
2023-03-17T07:50:36.910Z,9.10
2023-03-17T07:54:45.834Z,9.20
2023-03-17T07:58:54.795Z,9.30
2023-03-17T08:03:10.337Z,9.30
2023-03-17T08:07:15.644Z,9.40
2023-03-17T08:11:24.450Z,9.50
2023-03-17T08:15:33.077Z,9.60
2023-03-17T08:19:42.521Z,9.80
2023-03-17T08:23:51.107Z,9.90
2023-03-17T08:27:59.886Z,10.00
2023-03-17T08:32:09.471Z,10.10
2023-03-17T08:36:19.837Z,10.20
2023-03-17T08:40:28.557Z,10.30
2023-03-17T08:44:37.214Z,10.40
2023-03-17T08:48:48.159Z,10.60
2023-03-17T08:52:56.882Z,10.80
2023-03-17T08:57:05.817Z,11.00
2023-03-17T09:01:15.272Z,11.00
2023-03-17T09:05:24.237Z,11.10
2023-03-17T09:09:34.880Z,11.20
2023-03-17T09:13:43.721Z,11.40
2023-03-17T09:17:52.341Z,11.40
2023-03-17T09:22:02.604Z,11.60
2023-03-17T09:26:13.173Z,11.80
2023-03-17T09:30:21.844Z,11.90
2023-03-17T09:34:51.520Z,12.00
2023-03-17T09:39:00.597Z,12.10
2023-03-17T09:43:27.329Z,12.30
2023-03-17T09:47:45.267Z,12.50
2023-03-17T09:51:54.289Z,12.70
2023-03-17T09:56:05.885Z,12.80
2023-03-17T10:00:20.650Z,13.00
2023-03-17T10:04:29.274Z,13.10
2023-03-17T10:08:41.109Z,13.20
2023-03-17T10:12:58.546Z,13.30
2023-03-17T10:17:19.096Z,13.40
2023-03-17T10:21:36.998Z,13.50
2023-03-17T10:25:45.535Z,13.50
2023-03-17T10:29:54.134Z,13.70
2023-03-17T10:34:21.131Z,13.80
2023-03-17T10:38:29.688Z,14.00
2023-03-17T10:42:47.788Z,14.50
2023-03-17T10:46:57.217Z,14.80
2023-03-17T10:51:11.909Z,15.00
2023-03-17T10:55:24.222Z,15.20
2023-03-17T10:59:35.529Z,15.30
2023-03-17T11:03:44.134Z,15.50
2023-03-17T11:08:15.112Z,15.60
2023-03-17T11:12:43.975Z,15.60
2023-03-17T11:17:01.120Z,15.60
2023-03-17T11:21:14.997Z,15.60
2023-03-17T11:25:25.435Z,15.60
2023-03-17T11:29:54.400Z,15.50
2023-03-17T11:34:08.898Z,15.50
2023-03-17T11:38:24.442Z,15.40
2023-03-17T11:42:51.299Z,15.30
2023-03-17T11:47:21.007Z,15.30
2023-03-17T11:51:36.087Z,15.30
2023-03-17T11:55:47.783Z,15.40
2023-03-17T11:59:59.417Z,15.50
2023-03-17T12:04:26.179Z,15.60
2023-03-17T12:08:47.040Z,15.90
2023-03-17T12:13:07.553Z,16.10
2023-03-17T12:17:35.633Z,16.30
2023-03-17T12:21:52.976Z,16.20
2023-03-17T12:26:06.166Z,16.30
2023-03-17T12:30:20.972Z,16.40
2023-03-17T12:34:57.354Z,16.50
2023-03-17T12:39:18.319Z,16.40
2023-03-17T12:43:36.326Z,16.30
2023-03-17T12:48:10.645Z,16.20
2023-03-17T12:52:25.931Z,16.10
2023-03-17T12:56:36.619Z,16.10
2023-03-17T13:00:51.489Z,16.20
2023-03-17T13:05:01.888Z,16.20
2023-03-17T13:09:31.640Z,16.30
2023-03-17T13:13:49.437Z,16.40
2023-03-17T13:18:18.947Z,16.50
2023-03-17T13:22:36.690Z,16.40
2023-03-17T13:27:01.945Z,16.50
2023-03-17T13:31:35.729Z,16.40
2023-03-17T13:35:53.459Z,16.40
2023-03-17T13:40:22.157Z,16.30
2023-03-17T13:44:47.590Z,16.30
2023-03-17T13:48:57.646Z,16.20
2023-03-17T13:53:10.464Z,16.30
2023-03-17T13:57:28.850Z,16.30
2023-03-17T14:01:46.954Z,16.20
2023-03-17T14:05:56.270Z,16.20
2023-03-17T14:10:05.709Z,16.20
2023-03-17T14:14:32.965Z,16.30
2023-03-17T14:18:45.705Z,16.20
2023-03-17T14:23:02.554Z,16.20
2023-03-17T14:27:14.786Z,16.10
2023-03-17T14:31:43.097Z,16.10
2023-03-17T14:35:54.522Z,16.10
2023-03-17T14:40:03.420Z,16.20
2023-03-17T14:44:12.150Z,16.20
2023-03-17T14:48:26.426Z,16.20
2023-03-17T14:52:36.609Z,16.30
2023-03-17T14:56:48.366Z,16.40
2023-03-17T15:01:00.132Z,16.40
2023-03-17T15:05:20.986Z,16.30
2023-03-17T15:09:38.221Z,16.20
2023-03-17T15:13:48.474Z,16.10
2023-03-17T15:18:00.537Z,16.00
2023-03-17T15:22:33.495Z,15.90
2023-03-17T15:26:42.281Z,15.90
2023-03-17T15:30:53.290Z,15.90
2023-03-17T15:35:02.362Z,15.80
2023-03-17T15:39:11.078Z,15.70
2023-03-17T15:43:23.855Z,15.60
2023-03-17T15:47:35.528Z,15.60
2023-03-17T15:51:44.099Z,15.50
2023-03-17T15:55:53.406Z,15.50
2023-03-17T16:00:02.306Z,15.40
2023-03-17T16:04:10.986Z,15.40
2023-03-17T16:08:19.860Z,15.40
2023-03-17T16:12:28.506Z,15.30
2023-03-17T16:16:45.013Z,15.30
2023-03-17T16:20:54.776Z,15.20
2023-03-17T16:25:27.544Z,15.20
2023-03-17T16:29:36.135Z,15.10
2023-03-17T16:33:45.138Z,15.00
2023-03-17T16:37:56.929Z,14.90
2023-03-17T16:42:05.611Z,14.90
2023-03-17T16:46:14.483Z,14.80
2023-03-17T16:50:26.516Z,14.70
2023-03-17T16:54:35.243Z,14.70
2023-03-17T16:58:44.349Z,14.60
2023-03-17T17:02:53.689Z,14.50
2023-03-17T17:07:02.491Z,14.40
2023-03-17T17:11:12.995Z,14.40
2023-03-17T17:15:22.969Z,14.30
2023-03-17T17:19:31.585Z,14.20
2023-03-17T17:23:40.218Z,14.10
2023-03-17T17:27:48.950Z,14.10
2023-03-17T17:31:57.538Z,14.00
2023-03-17T17:36:08.916Z,14.00
2023-03-17T17:40:20.666Z,13.90
2023-03-17T17:44:29.432Z,13.80
2023-03-17T17:48:37.960Z,13.80
2023-03-17T17:52:47.908Z,13.70
2023-03-17T17:56:56.655Z,13.70
2023-03-17T18:01:05.680Z,13.70
2023-03-17T18:05:14.735Z,13.70
2023-03-17T18:09:23.784Z,13.70
2023-03-17T18:13:34.482Z,13.70
2023-03-17T18:17:43.683Z,13.70
2023-03-17T18:21:52.312Z,13.70
2023-03-17T18:26:02.342Z,13.60
2023-03-17T18:30:14.122Z,13.60
2023-03-17T18:34:43.564Z,13.50
2023-03-17T18:38:52.617Z,13.40
2023-03-17T18:43:20.613Z,13.40
2023-03-17T18:47:29.241Z,13.30
2023-03-17T18:51:37.821Z,13.20
2023-03-17T18:55:46.949Z,13.30
2023-03-17T18:59:56.280Z,13.30
2023-03-17T19:04:05.861Z,13.30
2023-03-17T19:08:16.383Z,13.20
2023-03-17T19:12:25.420Z,13.20
2023-03-17T19:16:34.640Z,13.00
2023-03-17T19:20:44.117Z,13.00
2023-03-17T19:24:53.358Z,13.00
2023-03-17T19:29:02.170Z,13.00
2023-03-17T19:33:10.913Z,13.00
2023-03-17T19:37:19.462Z,13.00
2023-03-17T19:41:29.672Z,12.90
2023-03-17T19:45:38.376Z,12.90
2023-03-17T19:49:47.585Z,12.80
2023-03-17T19:53:56.801Z,12.80
2023-03-17T19:58:06.418Z,12.70
2023-03-17T20:02:16.706Z,12.70
2023-03-17T20:06:25.337Z,12.60
2023-03-17T20:10:34.324Z,12.60
2023-03-17T20:14:42.955Z,12.60
2023-03-17T20:18:51.513Z,12.60
2023-03-17T20:23:00.100Z,12.60
2023-03-17T20:27:10.663Z,12.60
2023-03-17T20:31:19.387Z,12.60
2023-03-17T20:35:28.333Z,12.50
2023-03-17T20:39:37.972Z,12.60
2023-03-17T20:44:06.281Z,12.60
2023-03-17T20:48:15.004Z,12.50
2023-03-17T20:52:24.276Z,12.50
2023-03-17T20:56:37.498Z,12.50
2023-03-17T21:00:46.150Z,12.50
2023-03-17T21:04:54.751Z,12.50
2023-03-17T21:09:04.696Z,12.50
2023-03-17T21:13:13.536Z,12.50
2023-03-17T21:17:22.791Z,12.60
2023-03-17T21:21:31.325Z,12.60
2023-03-17T21:25:40.275Z,12.60
2023-03-17T21:30:01.169Z,12.60
2023-03-17T21:34:21.771Z,12.50
2023-03-17T21:38:31.233Z,12.50
2023-03-17T21:42:40.824Z,12.40
2023-03-17T21:46:50.711Z,12.50
2023-03-17T21:50:59.264Z,12.40
2023-03-17T21:55:08.168Z,12.50
2023-03-17T21:59:18.479Z,12.40
2023-03-17T22:03:27.202Z,12.40
2023-03-17T22:07:35.816Z,12.50
2023-03-17T22:12:04.414Z,12.50
2023-03-17T22:16:14.801Z,12.50
2023-03-17T22:20:23.358Z,12.50
2023-03-17T22:24:32.515Z,12.50
2023-03-17T22:28:42.117Z,12.50
2023-03-17T22:32:50.992Z,12.40
2023-03-17T22:36:59.614Z,12.40
2023-03-17T22:41:11.296Z,12.40
2023-03-17T22:45:19.840Z,12.30
2023-03-17T22:49:28.526Z,12.30
2023-03-17T22:53:38.230Z,12.30
2023-03-17T22:57:47.394Z,12.20
2023-03-17T23:01:56.523Z,12.20
2023-03-17T23:06:06.541Z,12.10
2023-03-17T23:10:17.410Z,12.10
2023-03-17T23:14:26.460Z,12.10
2023-03-17T23:18:35.544Z,12.00
2023-03-17T23:22:44.458Z,12.00
2023-03-17T23:26:53.075Z,11.90
2023-03-17T23:31:02.817Z,11.90
2023-03-17T23:35:13.399Z,11.90
2023-03-17T23:39:22.124Z,11.80
2023-03-17T23:43:30.919Z,11.80
2023-03-17T23:47:39.785Z,11.70
2023-03-17T23:51:48.497Z,11.70
2023-03-17T23:55:57.848Z,11.70
